Airfield :
LOGIN :

Register | Disclaimer

   EN    FR    IT 

 










Legend :    VFR   Marginal VFR   IFR   Intensive IFR   Very Intensive IFR
Visi :
Ceiling :
>= 8 km
>= 3000ft
5 to 8 km
1000 to 3000 ft
1500m to 5 km
500 to 1000 ft
800 to 1500m
200 to 500 ft
< 800m
< 200 ft
Symbols :   Thunderstorms  Fog  Heavy snow  Heavy precipitations  Wind > 20 kt
SIGMETs :     Misc.  Thunderstorms  Icing  Turbulence  Mountain Waves  Volcanic Ashes






- Airport Elevation : 13 ft
- IATA code : CEQ


LFMD - Cannes Mandelieu

CURRENT METAR :
  • 010330Z AUTO 36004KT 330V030 CAVOK 05/02 Q1028 NOSIG

EXPIRED METARs :
  • 010300Z AUTO 36004KT CAVOK 05/02 Q1028 NOSIG
  • 010230Z AUTO 36004KT CAVOK 05/02 Q1028 NOSIG
  • 010200Z AUTO 01004KT CAVOK 05/02 Q1028
  • 010130Z AUTO 36005KT 330V030 CAVOK 06/03 Q1028
  • 010100Z AUTO 36004KT 330V050 CAVOK 06/03 Q1028

TAF TAF LFMD
Valid from the 01 at 03:00 until the 02 at 03:00 UTC


010200Z 0103/0203 VRB03KT CAVOK
TEMPO 0111/0117 09010KT
ATIS : +33 4 93 48 73 23



MET'MAP, your aeronautical weather chart ! - Copyright ORBIFLY December 2007 - Disclaimer

ORBIFLY MET'MAP TEAM :

Programming & Development : Alexandra Zaïnal
Concept & original design : Baudouin d'Aumeries
Assistance for programming : Marc-Olivier Méhu
Technical & hardware support : Manuel Goepfert

Contact : metmap@orbifly.com




SOURCES & CREDITS :

   NOAA